sensor_id;sensor_type;location;lat;lon;timestamp;temperature;humidity
23385;DHT22;11865;45.394;10.978;2024-01-27T00:00:11;4.40;99.90
23385;DHT22;11865;45.394;10.978;2024-01-27T00:02:39;4.40;99.90
23385;DHT22;11865;45.394;10.978;2024-01-27T00:05:06;4.30;99.90
23385;DHT22;11865;45.394;10.978;2024-01-27T00:07:35;4.30;99.90
23385;DHT22;11865;45.394;10.978;2024-01-27T00:10:03;4.20;99.90
23385;DHT22;11865;45.394;10.978;2024-01-27T00:12:30;4.30;99.90
23385;DHT22;11865;45.394;10.978;2024-01-27T00:14:58;4.10;99.90
23385;DHT22;11865;45.394;10.978;2024-01-27T00:17:25;4.20;99.90
23385;DHT22;11865;45.394;10.978;2024-01-27T00:19:55;4.10;99.90
23385;DHT22;11865;45.394;10.978;2024-01-27T00:22:22;4.00;99.90
23385;DHT22;11865;45.394;10.978;2024-01-27T00:24:50;4.10;99.90
23385;DHT22;11865;45.394;10.978;2024-01-27T00:27:17;3.90;99.90
23385;DHT22;11865;45.394;10.978;2024-01-27T00:29:45;3.90;99.90
23385;DHT22;11865;45.394;10.978;2024-01-27T00:32:13;3.80;99.90
23385;DHT22;11865;45.394;10.978;2024-01-27T00:34:40;3.70;99.90
23385;DHT22;11865;45.394;10.978;2024-01-27T00:37:08;3.60;99.90
23385;DHT22;11865;45.394;10.978;2024-01-27T00:39:35;3.70;99.90
23385;DHT22;11865;45.394;10.978;2024-01-27T00:42:03;3.70;99.90
23385;DHT22;11865;45.394;10.978;2024-01-27T00:44:30;3.70;99.90
23385;DHT22;11865;45.394;10.978;2024-01-27T00:46:58;3.80;99.90
23385;DHT22;11865;45.394;10.978;2024-01-27T00:49:25;3.80;99.90
23385;DHT22;11865;45.394;10.978;2024-01-27T00:51:53;3.70;99.90
23385;DHT22;11865;45.394;10.978;2024-01-27T00:54:20;3.80;99.90
23385;DHT22;11865;45.394;10.978;2024-01-27T00:56:48;3.60;99.90
23385;DHT22;11865;45.394;10.978;2024-01-27T00:59:16;3.60;99.90
23385;DHT22;11865;45.394;10.978;2024-01-27T01:01:43;3.60;99.90
23385;DHT22;11865;45.394;10.978;2024-01-27T01:04:11;3.70;99.90
23385;DHT22;11865;45.394;10.978;2024-01-27T01:06:39;3.60;99.90
23385;DHT22;11865;45.394;10.978;2024-01-27T01:09:07;3.50;99.90
23385;DHT22;11865;45.394;10.978;2024-01-27T01:11:36;3.40;99.90
23385;DHT22;11865;45.394;10.978;2024-01-27T01:14:06;3.30;99.90
23385;DHT22;11865;45.394;10.978;2024-01-27T01:16:34;3.30;99.90
23385;DHT22;11865;45.394;10.978;2024-01-27T01:19:01;3.30;99.90
23385;DHT22;11865;45.394;10.978;2024-01-27T01:21:29;3.20;99.90
23385;DHT22;11865;45.394;10.978;2024-01-27T01:23:57;3.20;99.90
23385;DHT22;11865;45.394;10.978;2024-01-27T01:26:25;3.30;99.90
23385;DHT22;11865;45.394;10.978;2024-01-27T01:28:52;3.30;99.90
23385;DHT22;11865;45.394;10.978;2024-01-27T01:31:20;3.10;99.90
23385;DHT22;11865;45.394;10.978;2024-01-27T01:33:47;3.10;99.90
23385;DHT22;11865;45.394;10.978;2024-01-27T01:36:15;3.20;99.90
23385;DHT22;11865;45.394;10.978;2024-01-27T01:38:43;3.10;99.90
23385;DHT22;11865;45.394;10.978;2024-01-27T01:41:10;3.00;99.90
23385;DHT22;11865;45.394;10.978;2024-01-27T01:43:38;3.00;99.90
23385;DHT22;11865;45.394;10.978;2024-01-27T01:46:06;2.90;99.90
23385;DHT22;11865;45.394;10.978;2024-01-27T01:48:33;2.80;99.90
23385;DHT22;11865;45.394;10.978;2024-01-27T01:51:01;2.80;99.90
23385;DHT22;11865;45.394;10.978;2024-01-27T01:53:29;3.00;99.90
23385;DHT22;11865;45.394;10.978;2024-01-27T01:55:57;3.00;99.90
23385;DHT22;11865;45.394;10.978;2024-01-27T01:58:25;3.10;99.90
23385;DHT22;11865;45.394;10.978;2024-01-27T02:00:52;3.00;99.90
23385;DHT22;11865;45.394;10.978;2024-01-27T02:03:20;2.70;99.90
23385;DHT22;11865;45.394;10.978;2024-01-27T02:05:47;2.80;99.90
23385;DHT22;11865;45.394;10.978;2024-01-27T02:08:15;2.80;99.90
23385;DHT22;11865;45.394;10.978;2024-01-27T02:10:42;2.80;99.90
23385;DHT22;11865;45.394;10.978;2024-01-27T02:13:17;2.80;99.90
23385;DHT22;11865;45.394;10.978;2024-01-27T02:15:48;2.90;99.90
23385;DHT22;11865;45.394;10.978;2024-01-27T02:18:16;2.80;99.90
23385;DHT22;11865;45.394;10.978;2024-01-27T02:20:44;2.80;99.90
23385;DHT22;11865;45.394;10.978;2024-01-27T02:23:12;2.80;99.90
23385;DHT22;11865;45.394;10.978;2024-01-27T02:25:39;2.60;99.90
23385;DHT22;11865;45.394;10.978;2024-01-27T02:28:07;2.70;99.90
23385;DHT22;11865;45.394;10.978;2024-01-27T02:30:35;2.80;99.90
23385;DHT22;11865;45.394;10.978;2024-01-27T02:33:03;2.70;99.90
23385;DHT22;11865;45.394;10.978;2024-01-27T02:35:30;2.80;99.90
23385;DHT22;11865;45.394;10.978;2024-01-27T02:37:58;2.80;99.90
23385;DHT22;11865;45.394;10.978;2024-01-27T02:40:26;2.90;99.90
23385;DHT22;11865;45.394;10.978;2024-01-27T02:42:53;2.80;99.90
23385;DHT22;11865;45.394;10.978;2024-01-27T02:45:21;2.90;99.90
23385;DHT22;11865;45.394;10.978;2024-01-27T02:47:48;2.80;99.90
23385;DHT22;11865;45.394;10.978;2024-01-27T02:50:16;2.80;99.90
23385;DHT22;11865;45.394;10.978;2024-01-27T02:52:44;2.80;99.90
23385;DHT22;11865;45.394;10.978;2024-01-27T02:55:11;3.00;99.90
23385;DHT22;11865;45.394;10.978;2024-01-27T02:57:40;2.90;99.90
23385;DHT22;11865;45.394;10.978;2024-01-27T03:00:08;2.70;99.90
23385;DHT22;11865;45.394;10.978;2024-01-27T03:02:36;2.80;99.90
23385;DHT22;11865;45.394;10.978;2024-01-27T03:05:04;2.60;99.90
23385;DHT22;11865;45.394;10.978;2024-01-27T03:07:32;2.50;99.90
23385;DHT22;11865;45.394;10.978;2024-01-27T03:09:59;2.60;99.90
23385;DHT22;11865;45.394;10.978;2024-01-27T03:12:27;2.50;99.90
23385;DHT22;11865;45.394;10.978;2024-01-27T03:14:54;2.50;99.90
23385;DHT22;11865;45.394;10.978;2024-01-27T03:17:22;2.80;99.90
23385;DHT22;11865;45.394;10.978;2024-01-27T03:19:50;2.60;99.90
23385;DHT22;11865;45.394;10.978;2024-01-27T03:22:17;2.60;99.90
23385;DHT22;11865;45.394;10.978;2024-01-27T03:24:45;2.50;99.90
23385;DHT22;11865;45.394;10.978;2024-01-27T03:27:12;2.40;99.90
23385;DHT22;11865;45.394;10.978;2024-01-27T03:29:40;2.50;99.90
23385;DHT22;11865;45.394;10.978;2024-01-27T03:32:07;2.50;99.90
23385;DHT22;11865;45.394;10.978;2024-01-27T03:34:35;2.40;99.90
23385;DHT22;11865;45.394;10.978;2024-01-27T03:37:02;2.50;99.90
23385;DHT22;11865;45.394;10.978;2024-01-27T03:39:30;2.40;99.90
23385;DHT22;11865;45.394;10.978;2024-01-27T03:41:57;2.50;99.90
23385;DHT22;11865;45.394;10.978;2024-01-27T03:44:25;2.40;99.90
23385;DHT22;11865;45.394;10.978;2024-01-27T03:46:52;2.40;99.90
23385;DHT22;11865;45.394;10.978;2024-01-27T03:49:20;2.30;99.90
23385;DHT22;11865;45.394;10.978;2024-01-27T03:51:48;2.20;99.90
23385;DHT22;11865;45.394;10.978;2024-01-27T03:54:15;2.40;99.90
23385;DHT22;11865;45.394;10.978;2024-01-27T03:56:43;2.20;99.90
23385;DHT22;11865;45.394;10.978;2024-01-27T03:59:10;2.10;99.90
23385;DHT22;11865;45.394;10.978;2024-01-27T04:01:38;2.10;99.90
23385;DHT22;11865;45.394;10.978;2024-01-27T04:04:06;2.00;99.90
23385;DHT22;11865;45.394;10.978;2024-01-27T04:06:37;1.90;99.90
23385;DHT22;11865;45.394;10.978;2024-01-27T04:09:06;2.00;99.90
23385;DHT22;11865;45.394;10.978;2024-01-27T04:11:36;2.00;99.90
23385;DHT22;11865;45.394;10.978;2024-01-27T04:14:04;2.00;99.90
23385;DHT22;11865;45.394;10.978;2024-01-27T04:16:32;2.00;99.90
23385;DHT22;11865;45.394;10.978;2024-01-27T04:19:00;2.00;99.90
23385;DHT22;11865;45.394;10.978;2024-01-27T04:21:28;2.10;99.90
23385;DHT22;11865;45.394;10.978;2024-01-27T04:23:55;1.90;99.90
23385;DHT22;11865;45.394;10.978;2024-01-27T04:26:23;2.00;99.90
23385;DHT22;11865;45.394;10.978;2024-01-27T04:28:51;1.80;99.90
23385;DHT22;11865;45.394;10.978;2024-01-27T04:31:18;1.70;99.90
23385;DHT22;11865;45.394;10.978;2024-01-27T04:33:46;1.70;99.90
23385;DHT22;11865;45.394;10.978;2024-01-27T04:36:13;1.60;99.90
23385;DHT22;11865;45.394;10.978;2024-01-27T04:38:43;1.50;99.90
23385;DHT22;11865;45.394;10.978;2024-01-27T04:41:10;1.60;99.90
23385;DHT22;11865;45.394;10.978;2024-01-27T04:43:38;1.70;99.90
23385;DHT22;11865;45.394;10.978;2024-01-27T04:46:05;1.80;99.90
23385;DHT22;11865;45.394;10.978;2024-01-27T04:48:34;1.90;99.90
23385;DHT22;11865;45.394;10.978;2024-01-27T04:51:02;1.90;99.90
23385;DHT22;11865;45.394;10.978;2024-01-27T04:53:30;1.90;99.90
23385;DHT22;11865;45.394;10.978;2024-01-27T04:55:57;2.10;99.90
23385;DHT22;11865;45.394;10.978;2024-01-27T04:58:25;2.00;99.90
23385;DHT22;11865;45.394;10.978;2024-01-27T05:00:52;2.20;99.90
23385;DHT22;11865;45.394;10.978;2024-01-27T05:03:20;2.10;99.90
23385;DHT22;11865;45.394;10.978;2024-01-27T05:05:48;2.10;99.90
23385;DHT22;11865;45.394;10.978;2024-01-27T05:08:15;2.20;99.90
23385;DHT22;11865;45.394;10.978;2024-01-27T05:10:43;2.10;99.90
23385;DHT22;11865;45.394;10.978;2024-01-27T05:13:11;2.10;99.90
23385;DHT22;11865;45.394;10.978;2024-01-27T05:15:38;2.00;99.90
23385;DHT22;11865;45.394;10.978;2024-01-27T05:18:06;1.90;99.90
23385;DHT22;11865;45.394;10.978;2024-01-27T05:20:33;2.00;99.90
23385;DHT22;11865;45.394;10.978;2024-01-27T05:23:01;2.00;99.90
23385;DHT22;11865;45.394;10.978;2024-01-27T05:25:28;1.80;99.90
23385;DHT22;11865;45.394;10.978;2024-01-27T05:27:56;1.50;99.90
23385;DHT22;11865;45.394;10.978;2024-01-27T05:30:23;1.50;99.90
23385;DHT22;11865;45.394;10.978;2024-01-27T05:32:51;1.40;99.90
23385;DHT22;11865;45.394;10.978;2024-01-27T05:35:19;1.40;99.90
23385;DHT22;11865;45.394;10.978;2024-01-27T05:37:46;1.30;99.90
23385;DHT22;11865;45.394;10.978;2024-01-27T05:40:14;1.40;99.90
23385;DHT22;11865;45.394;10.978;2024-01-27T05:42:42;1.40;99.90
23385;DHT22;11865;45.394;10.978;2024-01-27T05:45:10;1.40;99.90
23385;DHT22;11865;45.394;10.978;2024-01-27T05:47:38;1.40;99.90
23385;DHT22;11865;45.394;10.978;2024-01-27T05:50:06;1.40;99.90
23385;DHT22;11865;45.394;10.978;2024-01-27T05:52:35;1.30;99.90
23385;DHT22;11865;45.394;10.978;2024-01-27T05:55:03;1.30;99.90
23385;DHT22;11865;45.394;10.978;2024-01-27T05:57:33;1.10;99.90
23385;DHT22;11865;45.394;10.978;2024-01-27T06:00:01;1.20;99.90
23385;DHT22;11865;45.394;10.978;2024-01-27T06:02:31;1.20;99.90
23385;DHT22;11865;45.394;10.978;2024-01-27T06:04:58;1.30;99.90
23385;DHT22;11865;45.394;10.978;2024-01-27T06:07:26;1.30;99.90
23385;DHT22;11865;45.394;10.978;2024-01-27T06:09:53;1.30;99.90
23385;DHT22;11865;45.394;10.978;2024-01-27T06:12:21;1.30;99.90
23385;DHT22;11865;45.394;10.978;2024-01-27T06:14:48;1.20;99.90
23385;DHT22;11865;45.394;10.978;2024-01-27T06:17:16;1.40;99.90
23385;DHT22;11865;45.394;10.978;2024-01-27T06:19:43;1.50;99.90
23385;DHT22;11865;45.394;10.978;2024-01-27T06:22:11;1.40;99.90
23385;DHT22;11865;45.394;10.978;2024-01-27T06:24:43;1.30;99.90
23385;DHT22;11865;45.394;10.978;2024-01-27T06:27:11;1.30;99.90
23385;DHT22;11865;45.394;10.978;2024-01-27T06:29:39;1.30;99.90
23385;DHT22;11865;45.394;10.978;2024-01-27T06:32:09;1.20;99.90
23385;DHT22;11865;45.394;10.978;2024-01-27T06:34:39;1.30;99.90
23385;DHT22;11865;45.394;10.978;2024-01-27T06:37:07;1.30;99.90
23385;DHT22;11865;45.394;10.978;2024-01-27T06:39:34;1.00;99.90
23385;DHT22;11865;45.394;10.978;2024-01-27T06:42:02;0.90;99.90
23385;DHT22;11865;45.394;10.978;2024-01-27T06:44:30;1.20;99.90
23385;DHT22;11865;45.394;10.978;2024-01-27T06:46:57;1.10;99.90
23385;DHT22;11865;45.394;10.978;2024-01-27T06:49:25;1.10;99.90
23385;DHT22;11865;45.394;10.978;2024-01-27T06:51:52;1.20;99.90
23385;DHT22;11865;45.394;10.978;2024-01-27T06:54:20;1.30;99.90
23385;DHT22;11865;45.394;10.978;2024-01-27T06:56:47;1.40;99.90
23385;DHT22;11865;45.394;10.978;2024-01-27T06:59:15;1.30;99.90
23385;DHT22;11865;45.394;10.978;2024-01-27T07:01:46;1.30;99.90
23385;DHT22;11865;45.394;10.978;2024-01-27T07:04:15;1.40;99.90
23385;DHT22;11865;45.394;10.978;2024-01-27T07:06:43;1.40;99.90
23385;DHT22;11865;45.394;10.978;2024-01-27T07:09:11;1.50;99.90
23385;DHT22;11865;45.394;10.978;2024-01-27T07:11:39;1.50;99.90
23385;DHT22;11865;45.394;10.978;2024-01-27T07:14:06;1.50;99.90
23385;DHT22;11865;45.394;10.978;2024-01-27T07:16:35;1.70;99.90
23385;DHT22;11865;45.394;10.978;2024-01-27T07:19:02;1.70;99.90
23385;DHT22;11865;45.394;10.978;2024-01-27T07:21:30;1.70;99.90
23385;DHT22;11865;45.394;10.978;2024-01-27T07:23:58;1.80;99.90
23385;DHT22;11865;45.394;10.978;2024-01-27T07:26:26;1.80;99.90
23385;DHT22;11865;45.394;10.978;2024-01-27T07:28:53;1.80;99.90
23385;DHT22;11865;45.394;10.978;2024-01-27T07:31:21;1.80;99.90
23385;DHT22;11865;45.394;10.978;2024-01-27T07:33:50;1.70;99.90
23385;DHT22;11865;45.394;10.978;2024-01-27T07:36:18;1.90;99.90
23385;DHT22;11865;45.394;10.978;2024-01-27T07:38:45;1.90;99.90
23385;DHT22;11865;45.394;10.978;2024-01-27T07:41:13;1.90;99.90
23385;DHT22;11865;45.394;10.978;2024-01-27T07:43:40;2.00;99.90
23385;DHT22;11865;45.394;10.978;2024-01-27T07:46:09;2.10;99.90
23385;DHT22;11865;45.394;10.978;2024-01-27T07:48:36;2.00;99.90
23385;DHT22;11865;45.394;10.978;2024-01-27T07:51:04;2.10;99.90
23385;DHT22;11865;45.394;10.978;2024-01-27T07:53:32;2.10;99.90
23385;DHT22;11865;45.394;10.978;2024-01-27T07:56:00;2.10;99.90
23385;DHT22;11865;45.394;10.978;2024-01-27T07:58:27;2.20;99.90
23385;DHT22;11865;45.394;10.978;2024-01-27T08:00:55;2.30;99.90
23385;DHT22;11865;45.394;10.978;2024-01-27T08:03:23;2.30;99.90
23385;DHT22;11865;45.394;10.978;2024-01-27T08:05:50;2.40;99.90
23385;DHT22;11865;45.394;10.978;2024-01-27T08:08:18;2.50;99.90
23385;DHT22;11865;45.394;10.978;2024-01-27T08:10:45;2.50;99.90
23385;DHT22;11865;45.394;10.978;2024-01-27T08:13:13;2.40;99.90
23385;DHT22;11865;45.394;10.978;2024-01-27T08:15:40;2.50;99.90
23385;DHT22;11865;45.394;10.978;2024-01-27T08:18:08;2.70;99.90
23385;DHT22;11865;45.394;10.978;2024-01-27T08:20:36;2.50;99.90
23385;DHT22;11865;45.394;10.978;2024-01-27T08:23:04;2.40;99.90
23385;DHT22;11865;45.394;10.978;2024-01-27T08:25:33;2.50;99.90
23385;DHT22;11865;45.394;10.978;2024-01-27T08:28:01;2.60;99.90
23385;DHT22;11865;45.394;10.978;2024-01-27T08:30:28;2.60;99.90
23385;DHT22;11865;45.394;10.978;2024-01-27T08:32:56;2.70;99.90
23385;DHT22;11865;45.394;10.978;2024-01-27T08:35:23;2.70;99.90
23385;DHT22;11865;45.394;10.978;2024-01-27T08:37:51;2.80;99.90
23385;DHT22;11865;45.394;10.978;2024-01-27T08:40:19;2.80;99.90
23385;DHT22;11865;45.394;10.978;2024-01-27T08:42:46;2.90;99.90
23385;DHT22;11865;45.394;10.978;2024-01-27T08:45:14;3.00;99.90
23385;DHT22;11865;45.394;10.978;2024-01-27T08:47:42;3.00;99.90
23385;DHT22;11865;45.394;10.978;2024-01-27T08:50:10;3.00;99.90
23385;DHT22;11865;45.394;10.978;2024-01-27T08:52:38;3.10;99.90
23385;DHT22;11865;45.394;10.978;2024-01-27T08:55:06;3.30;99.90
23385;DHT22;11865;45.394;10.978;2024-01-27T08:57:33;3.40;99.90
23385;DHT22;11865;45.394;10.978;2024-01-27T09:00:01;3.60;99.90
23385;DHT22;11865;45.394;10.978;2024-01-27T09:02:30;3.70;99.90
23385;DHT22;11865;45.394;10.978;2024-01-27T09:04:58;3.50;99.90
23385;DHT22;11865;45.394;10.978;2024-01-27T09:07:27;3.70;99.90
23385;DHT22;11865;45.394;10.978;2024-01-27T09:09:55;3.60;99.90
23385;DHT22;11865;45.394;10.978;2024-01-27T09:12:23;3.60;99.90
23385;DHT22;11865;45.394;10.978;2024-01-27T09:14:50;3.70;99.90
23385;DHT22;11865;45.394;10.978;2024-01-27T09:17:18;3.80;99.90
23385;DHT22;11865;45.394;10.978;2024-01-27T09:19:46;3.60;99.90
23385;DHT22;11865;45.394;10.978;2024-01-27T09:22:14;3.40;99.90
23385;DHT22;11865;45.394;10.978;2024-01-27T09:24:41;3.60;99.90
23385;DHT22;11865;45.394;10.978;2024-01-27T09:27:09;3.70;99.90
23385;DHT22;11865;45.394;10.978;2024-01-27T09:29:37;3.60;99.90
23385;DHT22;11865;45.394;10.978;2024-01-27T09:32:05;3.70;99.90
23385;DHT22;11865;45.394;10.978;2024-01-27T09:34:32;3.90;99.90
23385;DHT22;11865;45.394;10.978;2024-01-27T09:37:01;4.00;99.90
23385;DHT22;11865;45.394;10.978;2024-01-27T09:39:28;4.00;99.90
23385;DHT22;11865;45.394;10.978;2024-01-27T09:41:56;3.90;99.90
23385;DHT22;11865;45.394;10.978;2024-01-27T09:44:28;3.70;99.90
23385;DHT22;11865;45.394;10.978;2024-01-27T09:46:55;3.50;99.90
23385;DHT22;11865;45.394;10.978;2024-01-27T09:49:25;3.50;99.90
23385;DHT22;11865;45.394;10.978;2024-01-27T09:51:54;3.20;99.90
23385;DHT22;11865;45.394;10.978;2024-01-27T09:54:23;3.10;99.90
23385;DHT22;11865;45.394;10.978;2024-01-27T09:56:52;3.20;99.90
23385;DHT22;11865;45.394;10.978;2024-01-27T09:59:20;3.20;99.90
23385;DHT22;11865;45.394;10.978;2024-01-27T10:01:48;3.00;99.90
23385;DHT22;11865;45.394;10.978;2024-01-27T10:04:16;3.00;99.90
23385;DHT22;11865;45.394;10.978;2024-01-27T10:06:46;3.30;99.90
23385;DHT22;11865;45.394;10.978;2024-01-27T10:09:14;3.20;99.90
23385;DHT22;11865;45.394;10.978;2024-01-27T10:11:46;3.40;99.90
23385;DHT22;11865;45.394;10.978;2024-01-27T10:14:15;3.10;99.90
23385;DHT22;11865;45.394;10.978;2024-01-27T10:16:43;3.20;99.90
23385;DHT22;11865;45.394;10.978;2024-01-27T10:19:17;2.90;99.90
23385;DHT22;11865;45.394;10.978;2024-01-27T10:21:46;3.00;99.90
23385;DHT22;11865;45.394;10.978;2024-01-27T10:24:14;2.90;99.90
23385;DHT22;11865;45.394;10.978;2024-01-27T10:26:42;3.10;99.90
23385;DHT22;11865;45.394;10.978;2024-01-27T10:29:09;3.20;99.90
23385;DHT22;11865;45.394;10.978;2024-01-27T10:31:37;3.00;99.90
23385;DHT22;11865;45.394;10.978;2024-01-27T10:34:05;3.20;99.90
23385;DHT22;11865;45.394;10.978;2024-01-27T10:36:43;3.40;99.90
23385;DHT22;11865;45.394;10.978;2024-01-27T10:39:17;3.20;99.90
23385;DHT22;11865;45.394;10.978;2024-01-27T10:41:45;3.60;99.90
23385;DHT22;11865;45.394;10.978;2024-01-27T10:44:16;3.60;99.90
23385;DHT22;11865;45.394;10.978;2024-01-27T10:46:46;3.50;99.90
23385;DHT22;11865;45.394;10.978;2024-01-27T10:49:16;3.50;99.90
23385;DHT22;11865;45.394;10.978;2024-01-27T10:51:54;3.40;99.90
23385;DHT22;11865;45.394;10.978;2024-01-27T10:54:26;3.50;99.90
23385;DHT22;11865;45.394;10.978;2024-01-27T10:56:56;3.70;99.90
23385;DHT22;11865;45.394;10.978;2024-01-27T10:59:27;3.30;99.90
23385;DHT22;11865;45.394;10.978;2024-01-27T11:01:56;3.70;99.90
23385;DHT22;11865;45.394;10.978;2024-01-27T11:04:24;3.60;99.90
23385;DHT22;11865;45.394;10.978;2024-01-27T11:06:53;3.50;99.90
23385;DHT22;11865;45.394;10.978;2024-01-27T11:09:22;3.60;99.90
23385;DHT22;11865;45.394;10.978;2024-01-27T11:11:51;3.90;99.90
23385;DHT22;11865;45.394;10.978;2024-01-27T11:14:18;4.00;99.90
23385;DHT22;11865;45.394;10.978;2024-01-27T11:16:46;3.90;99.90
23385;DHT22;11865;45.394;10.978;2024-01-27T11:19:17;3.90;99.90
23385;DHT22;11865;45.394;10.978;2024-01-27T11:21:45;3.90;99.90
23385;DHT22;11865;45.394;10.978;2024-01-27T11:24:16;3.90;99.90
23385;DHT22;11865;45.394;10.978;2024-01-27T11:26:44;3.70;99.90
23385;DHT22;11865;45.394;10.978;2024-01-27T11:29:12;4.10;99.90
23385;DHT22;11865;45.394;10.978;2024-01-27T11:31:48;4.10;99.90
23385;DHT22;11865;45.394;10.978;2024-01-27T11:34:18;4.30;99.90
23385;DHT22;11865;45.394;10.978;2024-01-27T11:36:48;4.00;99.90
23385;DHT22;11865;45.394;10.978;2024-01-27T11:39:29;4.20;99.90
23385;DHT22;11865;45.394;10.978;2024-01-27T11:42:10;4.10;99.90
23385;DHT22;11865;45.394;10.978;2024-01-27T11:44:42;3.90;99.90
23385;DHT22;11865;45.394;10.978;2024-01-27T11:47:28;4.30;99.90
23385;DHT22;11865;45.394;10.978;2024-01-27T11:49:57;3.90;99.90
23385;DHT22;11865;45.394;10.978;2024-01-27T11:52:27;4.10;99.90
23385;DHT22;11865;45.394;10.978;2024-01-27T11:54:59;4.20;99.90
23385;DHT22;11865;45.394;10.978;2024-01-27T11:57:27;4.40;99.90
23385;DHT22;11865;45.394;10.978;2024-01-27T11:59:56;4.70;99.90
23385;DHT22;11865;45.394;10.978;2024-01-27T12:02:23;4.60;99.90
23385;DHT22;11865;45.394;10.978;2024-01-27T12:04:51;4.80;99.90
23385;DHT22;11865;45.394;10.978;2024-01-27T12:07:20;5.20;99.90
23385;DHT22;11865;45.394;10.978;2024-01-27T12:09:49;5.10;99.90
23385;DHT22;11865;45.394;10.978;2024-01-27T12:12:18;5.20;99.90
23385;DHT22;11865;45.394;10.978;2024-01-27T12:14:50;4.80;99.90
23385;DHT22;11865;45.394;10.978;2024-01-27T12:17:19;5.30;99.90
23385;DHT22;11865;45.394;10.978;2024-01-27T12:19:48;5.20;99.90
23385;DHT22;11865;45.394;10.978;2024-01-27T12:22:27;5.00;99.90
23385;DHT22;11865;45.394;10.978;2024-01-27T12:25:07;5.10;99.90
23385;DHT22;11865;45.394;10.978;2024-01-27T12:27:35;5.20;99.90
23385;DHT22;11865;45.394;10.978;2024-01-27T12:30:03;5.10;99.90
23385;DHT22;11865;45.394;10.978;2024-01-27T12:32:31;5.30;99.90
23385;DHT22;11865;45.394;10.978;2024-01-27T12:35:07;5.20;99.90
23385;DHT22;11865;45.394;10.978;2024-01-27T12:37:36;5.30;99.90
23385;DHT22;11865;45.394;10.978;2024-01-27T12:40:17;5.40;99.90
23385;DHT22;11865;45.394;10.978;2024-01-27T12:42:50;5.50;99.90
23385;DHT22;11865;45.394;10.978;2024-01-27T12:45:18;5.50;99.90
23385;DHT22;11865;45.394;10.978;2024-01-27T12:47:46;5.60;99.90
23385;DHT22;11865;45.394;10.978;2024-01-27T12:50:13;5.10;99.90
23385;DHT22;11865;45.394;10.978;2024-01-27T12:52:42;5.40;99.90
23385;DHT22;11865;45.394;10.978;2024-01-27T12:55:10;5.90;99.90
23385;DHT22;11865;45.394;10.978;2024-01-27T12:57:37;5.80;99.90
23385;DHT22;11865;45.394;10.978;2024-01-27T13:00:07;6.00;99.90
23385;DHT22;11865;45.394;10.978;2024-01-27T13:02:37;5.70;99.90
23385;DHT22;11865;45.394;10.978;2024-01-27T13:05:05;5.80;99.90
23385;DHT22;11865;45.394;10.978;2024-01-27T13:07:33;5.70;99.90
23385;DHT22;11865;45.394;10.978;2024-01-27T13:10:01;5.60;99.90
23385;DHT22;11865;45.394;10.978;2024-01-27T13:12:29;5.70;99.90
23385;DHT22;11865;45.394;10.978;2024-01-27T13:14:56;5.50;99.90
23385;DHT22;11865;45.394;10.978;2024-01-27T13:17:24;5.70;99.90
23385;DHT22;11865;45.394;10.978;2024-01-27T13:19:51;5.70;99.90
23385;DHT22;11865;45.394;10.978;2024-01-27T13:22:20;5.80;99.90
23385;DHT22;11865;45.394;10.978;2024-01-27T13:24:51;6.00;99.90
23385;DHT22;11865;45.394;10.978;2024-01-27T13:27:19;5.90;99.90
23385;DHT22;11865;45.394;10.978;2024-01-27T13:29:47;5.80;99.90
23385;DHT22;11865;45.394;10.978;2024-01-27T13:32:15;5.90;99.90
23385;DHT22;11865;45.394;10.978;2024-01-27T13:34:43;5.80;99.90
23385;DHT22;11865;45.394;10.978;2024-01-27T13:37:10;6.00;99.90
23385;DHT22;11865;45.394;10.978;2024-01-27T13:39:38;5.90;99.90
23385;DHT22;11865;45.394;10.978;2024-01-27T13:42:06;6.20;99.90
23385;DHT22;11865;45.394;10.978;2024-01-27T13:44:34;6.30;99.90
23385;DHT22;11865;45.394;10.978;2024-01-27T13:47:04;6.00;99.90
23385;DHT22;11865;45.394;10.978;2024-01-27T13:49:32;6.10;99.90
23385;DHT22;11865;45.394;10.978;2024-01-27T13:52:00;6.10;99.90
23385;DHT22;11865;45.394;10.978;2024-01-27T13:54:32;6.00;99.90
23385;DHT22;11865;45.394;10.978;2024-01-27T13:57:02;6.10;99.90
23385;DHT22;11865;45.394;10.978;2024-01-27T13:59:31;6.20;99.90
23385;DHT22;11865;45.394;10.978;2024-01-27T14:01:59;6.30;99.90
23385;DHT22;11865;45.394;10.978;2024-01-27T14:04:26;6.30;99.90
23385;DHT22;11865;45.394;10.978;2024-01-27T14:06:54;6.30;99.90
23385;DHT22;11865;45.394;10.978;2024-01-27T14:09:25;6.40;99.90
23385;DHT22;11865;45.394;10.978;2024-01-27T14:11:54;6.60;99.90
23385;DHT22;11865;45.394;10.978;2024-01-27T14:14:21;6.70;99.90
23385;DHT22;11865;45.394;10.978;2024-01-27T14:16:49;6.50;99.90
23385;DHT22;11865;45.394;10.978;2024-01-27T14:19:16;6.40;99.90
23385;DHT22;11865;45.394;10.978;2024-01-27T14:21:44;6.30;99.90
23385;DHT22;11865;45.394;10.978;2024-01-27T14:24:11;6.10;99.90
23385;DHT22;11865;45.394;10.978;2024-01-27T14:26:39;6.10;99.90
23385;DHT22;11865;45.394;10.978;2024-01-27T14:29:06;6.00;99.90
23385;DHT22;11865;45.394;10.978;2024-01-27T14:31:34;6.20;99.90
23385;DHT22;11865;45.394;10.978;2024-01-27T14:34:02;6.20;99.90
23385;DHT22;11865;45.394;10.978;2024-01-27T14:36:30;6.20;99.90
23385;DHT22;11865;45.394;10.978;2024-01-27T14:38:58;6.30;99.90
23385;DHT22;11865;45.394;10.978;2024-01-27T14:41:25;6.50;99.90
23385;DHT22;11865;45.394;10.978;2024-01-27T14:43:53;6.60;99.90
23385;DHT22;11865;45.394;10.978;2024-01-27T14:46:22;6.70;99.90
23385;DHT22;11865;45.394;10.978;2024-01-27T14:48:50;6.40;99.90
23385;DHT22;11865;45.394;10.978;2024-01-27T14:51:18;6.30;99.90
23385;DHT22;11865;45.394;10.978;2024-01-27T14:53:45;6.30;99.90
23385;DHT22;11865;45.394;10.978;2024-01-27T14:56:13;6.50;99.90
23385;DHT22;11865;45.394;10.978;2024-01-27T14:58:41;6.60;99.90
23385;DHT22;11865;45.394;10.978;2024-01-27T15:01:08;6.70;99.90
23385;DHT22;11865;45.394;10.978;2024-01-27T15:03:36;6.60;99.90
23385;DHT22;11865;45.394;10.978;2024-01-27T15:06:04;6.50;99.90
23385;DHT22;11865;45.394;10.978;2024-01-27T15:08:31;6.40;99.90
23385;DHT22;11865;45.394;10.978;2024-01-27T15:10:59;6.30;99.90
23385;DHT22;11865;45.394;10.978;2024-01-27T15:13:26;6.30;99.90
23385;DHT22;11865;45.394;10.978;2024-01-27T15:15:54;6.30;99.90
23385;DHT22;11865;45.394;10.978;2024-01-27T15:18:22;6.40;99.90
23385;DHT22;11865;45.394;10.978;2024-01-27T15:20:50;6.50;99.90
23385;DHT22;11865;45.394;10.978;2024-01-27T15:23:17;6.50;99.90
23385;DHT22;11865;45.394;10.978;2024-01-27T15:25:47;6.50;99.90
23385;DHT22;11865;45.394;10.978;2024-01-27T15:28:15;6.50;99.90
23385;DHT22;11865;45.394;10.978;2024-01-27T15:30:42;6.60;99.90
23385;DHT22;11865;45.394;10.978;2024-01-27T15:33:10;6.60;99.90
23385;DHT22;11865;45.394;10.978;2024-01-27T15:35:38;6.70;99.90